Time;durP1;ratioP1;P1;durP2;ratioP2;P2;SDS_P1;SDS_P2;PMS_P1;PMS_P2;Temp;Humidity;BMP_temperature;BMP_pressure;BME280_temperature;BME280_humidity;BME280_pressure;Samples;Min_cycle;Max_cycle;Signal;HPM_P1;HPM_P2
2021/04/30 00:00:40;;;;;;;13.40;7.63;;;11.90;52.60;;;;;;5053094;28;20029;-76
2021/04/30 00:03:06;;;;;;;12.13;7.68;;;11.80;52.80;;;;;;5053533;28;20452;-73
2021/04/30 00:05:33;;;;;;;13.85;8.10;;;11.80;53.20;;;;;;5052804;28;20489;-76
2021/04/30 00:08:00;;;;;;;11.15;8.20;;;11.70;53.20;;;;;;5052892;28;20520;-74
2021/04/30 00:10:26;;;;;;;15.63;8.45;;;11.70;53.20;;;;;;5052967;28;20106;-73
2021/04/30 00:12:53;;;;;;;14.48;8.43;;;11.70;53.30;;;;;;5034905;28;20511;-73
2021/04/30 00:15:20;;;;;;;13.57;8.13;;;11.70;53.40;;;;;;5052935;28;20056;-73
2021/04/30 00:17:46;;;;;;;13.77;8.82;;;11.60;53.60;;;;;;5051709;28;20032;-71
2021/04/30 00:20:14;;;;;;;13.30;8.57;;;11.60;53.60;;;;;;5052988;28;20094;-73
2021/04/30 00:22:40;;;;;;;13.27;8.02;;;11.60;53.60;;;;;;5052022;28;20056;-73
2021/04/30 00:25:06;;;;;;;11.32;7.80;;;11.60;53.60;;;;;;5052906;28;20531;-74
2021/04/30 00:27:32;;;;;;;9.98;7.38;;;11.60;53.80;;;;;;5052874;28;20029;-75
2021/04/30 00:29:59;;;;;;;13.13;8.38;;;11.60;54.00;;;;;;5051712;28;20049;-76
2021/04/30 00:32:25;;;;;;;13.98;8.30;;;11.50;54.00;;;;;;5051720;28;20037;-75
2021/04/30 00:34:51;;;;;;;15.25;8.60;;;11.50;54.00;;;;;;5052653;28;20037;-73
2021/04/30 00:37:17;;;;;;;12.02;8.05;;;11.50;54.20;;;;;;5051381;28;20127;-75
2021/04/30 00:39:43;;;;;;;11.85;7.80;;;11.50;54.40;;;;;;5052795;28;20032;-75
2021/04/30 00:42:09;;;;;;;11.57;8.48;;;11.50;54.50;;;;;;5034668;28;20032;-76
2021/04/30 00:44:35;;;;;;;11.90;8.25;;;11.50;54.50;;;;;;5051076;28;20095;-76
2021/04/30 00:47:01;;;;;;;11.00;7.95;;;11.40;54.60;;;;;;5052547;28;20036;-77
2021/04/30 00:49:27;;;;;;;12.20;8.35;;;11.40;54.90;;;;;;5051266;28;20068;-75
2021/04/30 00:51:52;;;;;;;12.63;8.57;;;11.30;54.90;;;;;;5051287;28;20037;-74
2021/04/30 00:54:18;;;;;;;12.02;8.38;;;11.30;54.90;;;;;;5052229;28;20159;-77
2021/04/30 00:56:45;;;;;;;15.57;8.38;;;11.40;54.90;;;;;;5052562;28;20452;-76
2021/04/30 00:59:12;;;;;;;11.77;8.63;;;11.40;55.00;;;;;;5050970;28;20041;-78
2021/04/30 01:01:39;;;;;;;15.88;8.73;;;11.30;55.00;;;;;;5051022;28;20072;-77
2021/04/30 01:04:05;;;;;;;16.67;8.30;;;11.30;55.00;;;;;;5034584;28;20043;-76
2021/04/30 01:06:32;;;;;;;12.98;8.40;;;11.30;55.00;;;;;;5051182;28;20127;-76
2021/04/30 01:08:58;;;;;;;10.68;8.20;;;11.30;55.00;;;;;;5051230;28;20059;-75
2021/04/30 01:11:24;;;;;;;13.23;8.27;;;11.30;55.10;;;;;;5051396;28;20037;-76
2021/04/30 01:13:50;;;;;;;13.00;8.00;;;11.30;55.10;;;;;;5051043;28;20045;-76
2021/04/30 01:16:16;;;;;;;17.25;9.05;;;11.30;55.30;;;;;;5050782;28;20067;-75
2021/04/30 01:18:43;;;;;;;13.02;8.43;;;11.20;55.20;;;;;;5051200;28;20029;-76
2021/04/30 01:21:10;;;;;;;13.90;9.55;;;11.30;55.20;;;;;;5052198;28;20037;-76
2021/04/30 01:23:50;;;;;;;14.55;8.15;;;11.30;55.00;;;;;;5051073;28;20033;-75
2021/04/30 01:26:17;;;;;;;14.95;8.35;;;11.30;55.10;;;;;;5053011;28;20048;-76
2021/04/30 01:28:43;;;;;;;11.60;8.15;;;11.30;55.10;;;;;;5038039;28;20126;-75
2021/04/30 01:31:10;;;;;;;14.30;8.57;;;11.30;55.20;;;;;;5056436;28;20055;-75
2021/04/30 01:33:36;;;;;;;12.10;7.93;;;11.20;55.00;;;;;;5055785;28;20049;-75
2021/04/30 01:36:02;;;;;;;11.55;7.78;;;11.20;55.20;;;;;;5055962;28;20410;-75
2021/04/30 01:38:28;;;;;;;15.27;8.20;;;11.20;55.20;;;;;;5055613;28;20056;-76
2021/04/30 01:40:55;;;;;;;11.95;7.90;;;11.20;55.20;;;;;;5054630;28;20510;-76
2021/04/30 01:43:23;;;;;;;11.63;8.60;;;11.20;55.20;;;;;;5054619;28;20056;-76
2021/04/30 01:45:54;;;;;;;13.63;7.38;;;11.20;55.20;;;;;;5055078;28;20100;-75
2021/04/30 01:48:23;;;;;;;13.80;7.35;;;11.20;55.10;;;;;;5054409;28;20383;-77
2021/04/30 01:50:50;;;;;;;14.27;7.35;;;11.20;55.10;;;;;;5055941;28;20497;-75
2021/04/30 01:53:20;;;;;;;10.63;7.20;;;11.20;55.00;;;;;;5054439;28;20175;-76
2021/04/30 01:55:46;;;;;;;12.32;7.38;;;11.30;55.00;;;;;;5054280;28;20041;-75
2021/04/30 01:58:14;;;;;;;14.00;8.45;;;11.30;55.00;;;;;;5055237;28;20394;-74
2021/04/30 02:00:40;;;;;;;15.57;7.65;;;11.30;54.80;;;;;;5055677;28;20449;-75
2021/04/30 02:03:06;;;;;;;14.52;7.35;;;11.30;54.80;;;;;;5055291;28;20037;-75
2021/04/30 02:05:33;;;;;;;17.15;8.50;;;11.30;54.80;;;;;;5055376;28;20033;-76
2021/04/30 02:08:01;;;;;;;15.10;7.78;;;11.30;54.80;;;;;;5055101;28;20131;-77
2021/04/30 02:10:28;;;;;;;10.05;6.90;;;11.30;54.70;;;;;;5035515;28;20041;-76
2021/04/30 02:12:54;;;;;;;11.23;7.38;;;11.30;54.70;;;;;;5035584;28;20048;-76
2021/04/30 02:15:23;;;;;;;10.63;7.70;;;11.30;54.70;;;;;;5035031;28;20057;-75
2021/04/30 02:17:49;;;;;;;13.10;7.80;;;11.30;54.80;;;;;;5034143;28;20382;-76
2021/04/30 02:20:17;;;;;;;11.63;6.82;;;11.30;54.70;;;;;;5035228;28;20179;-75
2021/04/30 02:22:43;;;;;;;11.55;7.07;;;11.40;54.80;;;;;;5034837;28;20448;-75
2021/04/30 02:25:11;;;;;;;13.57;7.15;;;11.30;54.60;;;;;;5034724;28;20124;-76
2021/04/30 02:27:37;;;;;;;13.85;7.80;;;11.40;54.60;;;;;;5035066;28;20033;-75
2021/04/30 02:30:05;;;;;;;10.90;7.38;;;11.40;54.50;;;;;;5033868;28;20069;-76
2021/04/30 02:32:33;;;;;;;10.93;6.68;;;11.40;54.50;;;;;;5033770;28;20140;-74
2021/04/30 02:35:00;;;;;;;10.30;7.00;;;11.40;54.40;;;;;;5034739;28;20040;-75
2021/04/30 02:37:26;;;;;;;11.32;6.90;;;11.40;54.40;;;;;;5034022;28;20041;-75
2021/04/30 02:39:52;;;;;;;9.88;6.22;;;11.50;54.40;;;;;;5034241;28;20029;-75
2021/04/30 02:42:19;;;;;;;15.15;6.90;;;11.50;54.40;;;;;;5033336;28;20038;-74
2021/04/30 02:44:45;;;;;;;15.93;6.85;;;11.50;54.40;;;;;;5034571;28;20043;-76
2021/04/30 02:47:12;;;;;;;12.10;5.93;;;11.50;54.40;;;;;;5033444;28;20120;-74
2021/04/30 02:49:40;;;;;;;12.02;6.60;;;11.50;54.40;;;;;;5016683;28;20072;-76
2021/04/30 02:52:07;;;;;;;12.98;6.15;;;11.50;54.30;;;;;;5033022;28;20077;-76
2021/04/30 02:54:34;;;;;;;9.52;6.68;;;11.50;54.20;;;;;;5016723;28;20391;-75
2021/04/30 02:57:00;;;;;;;10.05;5.90;;;11.50;54.20;;;;;;5033368;28;20128;-75
2021/04/30 02:59:28;;;;;;;10.40;5.88;;;11.50;54.20;;;;;;5016661;28;20577;-75
2021/04/30 03:01:54;;;;;;;12.93;6.43;;;11.60;54.20;;;;;;5034408;28;20112;-73
2021/04/30 03:04:20;;;;;;;12.20;6.40;;;11.60;54.10;;;;;;5032941;28;20041;-76
2021/04/30 03:06:47;;;;;;;10.13;6.30;;;11.60;53.90;;;;;;5033938;28;20049;-75
2021/04/30 03:09:13;;;;;;;14.23;6.28;;;11.60;53.90;;;;;;5032861;28;20048;-75
2021/04/30 03:11:39;;;;;;;10.57;6.97;;;11.70;53.90;;;;;;5034190;28;20521;-76
2021/04/30 03:14:05;;;;;;;12.27;6.93;;;11.70;53.80;;;;;;5034088;28;20045;-74
2021/04/30 03:16:31;;;;;;;10.23;6.63;;;11.70;53.70;;;;;;5032443;28;20374;-75
2021/04/30 03:18:57;;;;;;;13.10;6.07;;;11.70;53.70;;;;;;5033668;28;20535;-76
2021/04/30 03:21:24;;;;;;;12.10;6.88;;;11.70;53.70;;;;;;5033624;28;20116;-77
2021/04/30 03:23:50;;;;;;;10.25;6.15;;;11.70;53.70;;;;;;5016107;28;20042;-75
2021/04/30 03:26:16;;;;;;;8.32;6.03;;;11.80;53.50;;;;;;5033831;28;20179;-75
2021/04/30 03:28:42;;;;;;;9.77;6.50;;;11.80;53.50;;;;;;5032698;28;20056;-76
2021/04/30 03:31:08;;;;;;;11.77;6.55;;;11.80;53.40;;;;;;5032588;28;20494;-75
2021/04/30 03:33:34;;;;;;;9.82;5.43;;;11.80;53.30;;;;;;5032073;28;20412;-75
2021/04/30 03:36:00;;;;;;;13.52;6.05;;;11.80;53.30;;;;;;5033443;28;20042;-76
2021/04/30 03:38:26;;;;;;;10.40;6.38;;;11.90;53.30;;;;;;5033070;28;20053;-76
2021/04/30 03:40:52;;;;;;;10.07;6.28;;;11.90;53.20;;;;;;5033415;28;20041;-75
2021/04/30 03:43:18;;;;;;;12.05;6.35;;;12.00;53.20;;;;;;5033319;28;20053;-74
2021/04/30 03:45:44;;;;;;;11.82;6.35;;;12.00;53.10;;;;;;5033467;28;20029;-78
2021/04/30 03:48:10;;;;;;;10.73;5.90;;;12.10;53.00;;;;;;5032772;28;20045;-74
2021/04/30 03:50:36;;;;;;;12.75;6.38;;;12.20;52.80;;;;;;5031220;28;20030;-74
2021/04/30 03:53:02;;;;;;;14.27;6.63;;;12.30;52.70;;;;;;5031793;28;20474;-74
2021/04/30 03:55:28;;;;;;;16.70;6.00;;;12.30;52.60;;;;;;5015587;28;20095;-75
2021/04/30 03:57:55;;;;;;;12.40;6.43;;;12.40;52.50;;;;;;5031661;28;20453;-77
2021/04/30 04:00:21;;;;;;;9.82;5.97;;;12.40;52.40;;;;;;5033346;28;20039;-75
2021/04/30 04:02:47;;;;;;;12.23;7.28;;;12.50;52.30;;;;;;5033391;28;20033;-73
2021/04/30 04:05:13;;;;;;;11.43;6.22;;;12.60;52.10;;;;;;5031800;28;20053;-79
2021/04/30 04:07:40;;;;;;;10.27;6.00;;;12.60;51.90;;;;;;5032785;28;20052;-75
2021/04/30 04:10:06;;;;;;;14.68;6.97;;;12.70;51.80;;;;;;5032891;28;20045;-74
2021/04/30 04:12:32;;;;;;;13.05;7.03;;;12.80;51.70;;;;;;5031505;28;20044;-75
2021/04/30 04:14:59;;;;;;;14.80;6.25;;;12.90;51.50;;;;;;5032645;28;20033;-75
2021/04/30 04:17:25;;;;;;;12.38;6.45;;;13.00;51.30;;;;;;5032586;28;20030;-74
2021/04/30 04:19:51;;;;;;;12.35;7.32;;;13.10;51.10;;;;;;5031398;28;20034;-73
2021/04/30 04:22:17;;;;;;;11.02;6.32;;;13.20;50.90;;;;;;5032560;28;20624;-73
2021/04/30 04:24:44;;;;;;;11.48;6.15;;;13.20;50.80;;;;;;5031301;28;20037;-73
2021/04/30 04:27:10;;;;;;;10.15;6.47;;;13.20;50.90;;;;;;5031179;28;20112;-75
2021/04/30 04:29:37;;;;;;;10.85;6.63;;;13.30;50.80;;;;;;5031498;28;20043;-76
2021/04/30 04:32:04;;;;;;;18.65;7.05;;;13.40;50.70;;;;;;5014763;28;20041;-74
2021/04/30 04:34:31;;;;;;;13.27;6.80;;;13.50;50.50;;;;;;5032465;28;20049;-77
2021/04/30 04:36:57;;;;;;;15.43;7.15;;;13.80;50.20;;;;;;5031243;28;20492;-75
2021/04/30 04:39:25;;;;;;;13.73;6.53;;;14.00;49.80;;;;;;5031237;28;20052;-77
2021/04/30 04:41:52;;;;;;;17.20;6.82;;;14.20;49.40;;;;;;5032419;28;20467;-78
2021/04/30 04:44:18;;;;;;;12.50;6.47;;;14.40;48.90;;;;;;5014440;28;20025;-76
2021/04/30 04:46:44;;;;;;;13.82;6.90;;;14.70;48.50;;;;;;5031427;28;20041;-75
2021/04/30 04:49:11;;;;;;;13.55;7.05;;;15.00;48.20;;;;;;5032350;28;20037;-74
2021/04/30 04:51:37;;;;;;;12.65;7.35;;;15.40;47.50;;;;;;5032580;28;20470;-76
2021/04/30 04:54:04;;;;;;;8.95;6.28;;;15.70;46.80;;;;;;5013842;28;20046;-76
2021/04/30 04:56:30;;;;;;;12.45;6.40;;;16.00;46.60;;;;;;5032100;28;20512;-77
2021/04/30 04:58:56;;;;;;;13.38;6.68;;;16.20;45.20;;;;;;5031864;28;20080;-76
2021/04/30 05:01:22;;;;;;;9.90;7.10;;;16.20;45.00;;;;;;5031580;28;20125;-77
2021/04/30 05:03:48;;;;;;;15.15;6.35;;;16.20;44.80;;;;;;5036340;28;20041;-78
2021/04/30 05:06:14;;;;;;;11.50;6.15;;;16.20;44.80;;;;;;5034467;28;20049;-76
2021/04/30 05:08:41;;;;;;;10.70;6.40;;;16.10;44.70;;;;;;5035709;28;20120;-79
2021/04/30 05:11:07;;;;;;;12.55;6.20;;;16.10;44.80;;;;;;5036215;28;20075;-85
2021/04/30 05:13:33;;;;;;;15.70;6.28;;;16.10;44.90;;;;;;5036021;28;20045;-88
2021/04/30 05:16:00;;;;;;;11.52;5.03;;;16.00;44.90;;;;;;5018159;28;20092;-84
2021/04/30 05:18:27;;;;;;;13.25;6.05;;;16.00;44.90;;;;;;5034503;28;20132;-85
2021/04/30 05:20:53;;;;;;;10.38;5.60;;;15.90;44.90;;;;;;5018225;28;20048;-84
2021/04/30 05:23:20;;;;;;;11.18;5.60;;;15.90;45.00;;;;;;5035675;28;20041;-87
2021/04/30 05:25:48;;;;;;;13.65;6.30;;;15.90;45.30;;;;;;5035436;28;20383;-92
2021/04/30 05:28:15;;;;;;;9.50;5.07;;;16.10;46.00;;;;;;5037557;28;20880;-88
2021/04/30 05:30:41;;;;;;;14.80;5.88;;;16.20;45.50;;;;;;5040109;28;20037;-83
2021/04/30 05:33:07;;;;;;;10.05;5.80;;;16.30;45.30;;;;;;5036348;28;20041;-77
2021/04/30 05:35:33;;;;;;;10.25;5.72;;;16.60;45.30;;;;;;5035347;28;20090;-76
2021/04/30 05:38:00;;;;;;;12.30;5.30;;;16.90;44.90;;;;;;5035767;28;20037;-77
2021/04/30 05:40:26;;;;;;;10.38;4.40;;;17.00;44.50;;;;;;5035304;28;20029;-76
2021/04/30 05:42:53;;;;;;;8.98;5.07;;;17.00;44.20;;;;;;5033750;28;20128;-77
2021/04/30 05:45:19;;;;;;;12.55;5.13;;;17.00;44.10;;;;;;5035540;28;20564;-79
2021/04/30 05:47:46;;;;;;;11.85;6.10;;;16.90;44.00;;;;;;5019370;28;20060;-77
2021/04/30 05:50:13;;;;;;;12.75;5.80;;;16.80;43.90;;;;;;5035508;28;20401;-78
2021/04/30 05:52:39;;;;;;;9.05;4.82;;;16.70;43.90;;;;;;5035532;28;20045;-83
2021/04/30 05:55:06;;;;;;;12.13;5.57;;;16.60;43.90;;;;;;5034976;28;20525;-78
2021/04/30 05:57:32;;;;;;;9.93;5.50;;;16.50;44.00;;;;;;5035383;28;20037;-77
2021/04/30 05:59:57;;;;;;;13.38;5.47;;;16.40;44.10;;;;;;5033858;28;20034;-76
2021/04/30 06:02:23;;;;;;;11.70;5.25;;;16.40;44.40;;;;;;5035195;28;20421;-78
2021/04/30 06:04:49;;;;;;;14.43;5.72;;;16.30;44.50;;;;;;5036995;28;20060;-86
2021/04/30 06:07:16;;;;;;;12.32;6.88;;;16.20;44.60;;;;;;5037617;28;20409;-80
2021/04/30 06:09:42;;;;;;;16.02;9.10;;;16.20;44.90;;;;;;5036878;28;20460;-81
2021/04/30 06:12:08;;;;;;;12.00;7.25;;;16.10;44.90;;;;;;5036650;28;20029;-88
2021/04/30 06:14:34;;;;;;;13.88;6.93;;;16.00;44.70;;;;;;5036851;28;20038;-79
2021/04/30 06:17:04;;;;;;;11.80;5.53;;;16.00;44.60;;;;;;5036880;28;20053;-80
2021/04/30 06:19:30;;;;;;;9.88;4.60;;;15.90;44.60;;;;;;5037051;28;20120;-81
2021/04/30 06:21:56;;;;;;;10.73;4.60;;;15.90;45.20;;;;;;5036984;28;20091;-83
2021/04/30 06:24:23;;;;;;;12.15;4.68;;;15.90;44.70;;;;;;5036915;28;20081;-85
2021/04/30 06:26:49;;;;;;;8.75;4.82;;;15.90;44.60;;;;;;5036566;28;20048;-79
2021/04/30 06:29:16;;;;;;;12.43;4.78;;;15.90;44.70;;;;;;5039140;28;20039;-81
2021/04/30 06:31:45;;;;;;;12.05;5.05;;;15.80;44.60;;;;;;5054443;28;20037;-83
2021/04/30 06:34:12;;;;;;;10.93;4.50;;;15.80;44.70;;;;;;5054227;28;20041;-83
2021/04/30 06:36:38;;;;;;;9.35;4.32;;;15.80;44.80;;;;;;5053990;28;20044;-83
2021/04/30 06:39:05;;;;;;;9.98;4.38;;;15.80;45.00;;;;;;5055841;28;20033;-84
2021/04/30 06:41:31;;;;;;;10.18;4.63;;;15.80;44.90;;;;;;5056024;28;20039;-81
2021/04/30 06:43:57;;;;;;;11.38;4.50;;;15.80;44.90;;;;;;5056366;28;20071;-77
2021/04/30 06:46:23;;;;;;;7.68;4.30;;;15.80;45.00;;;;;;5054831;28;20036;-80
2021/04/30 06:48:51;;;;;;;11.52;4.65;;;15.80;44.90;;;;;;5053307;28;20080;-83
2021/04/30 06:51:17;;;;;;;10.15;4.70;;;15.80;44.90;;;;;;5054921;28;20050;-82
2021/04/30 06:53:43;;;;;;;8.68;4.45;;;15.70;45.00;;;;;;5054813;28;20033;-80
2021/04/30 06:56:10;;;;;;;8.05;4.32;;;15.60;45.00;;;;;;5054459;28;20028;-79
2021/04/30 06:58:36;;;;;;;8.93;4.60;;;15.60;45.10;;;;;;5053982;28;20037;-77
2021/04/30 07:01:02;;;;;;;8.75;4.75;;;15.60;45.20;;;;;;5053323;28;20024;-77
2021/04/30 07:03:29;;;;;;;11.30;4.55;;;15.50;45.30;;;;;;5054034;28;20618;-76
2021/04/30 07:05:55;;;;;;;8.30;4.75;;;15.50;45.40;;;;;;5054526;28;20045;-80
2021/04/30 07:08:21;;;;;;;10.40;4.50;;;15.50;45.50;;;;;;5053506;28;20164;-78
2021/04/30 07:10:47;;;;;;;8.10;4.72;;;15.50;45.60;;;;;;5054603;28;20161;-77
2021/04/30 07:13:13;;;;;;;11.98;4.28;;;15.50;45.70;;;;;;5053616;28;20036;-82
2021/04/30 07:15:39;;;;;;;12.23;4.10;;;15.60;45.70;;;;;;5054267;28;20491;-82
2021/04/30 07:18:06;;;;;;;6.28;4.00;;;15.60;45.70;;;;;;5036391;28;20048;-82
2021/04/30 07:20:34;;;;;;;8.02;4.20;;;15.70;45.70;;;;;;5054798;28;20493;-84
2021/04/30 07:23:01;;;;;;;10.68;4.63;;;15.70;45.60;;;;;;5054692;28;20056;-83
2021/04/30 07:25:28;;;;;;;5.22;3.97;;;15.80;45.50;;;;;;5053082;28;20123;-76
2021/04/30 07:27:55;;;;;;;7.70;3.70;;;15.80;45.50;;;;;;5049264;28;20051;-80
2021/04/30 07:30:22;;;;;;;7.80;3.92;;;15.90;45.50;;;;;;5052309;28;20036;-76
2021/04/30 07:32:48;;;;;;;8.45;4.53;;;15.90;45.50;;;;;;5053115;28;20447;-76
2021/04/30 07:35:14;;;;;;;4.95;3.60;;;16.00;45.40;;;;;;5049204;28;20037;-78
2021/04/30 07:37:40;;;;;;;7.68;3.90;;;16.00;45.30;;;;;;5053868;28;20087;-75
2021/04/30 07:40:08;;;;;;;11.75;3.97;;;16.00;45.20;;;;;;5051980;28;20037;-75
2021/04/30 07:42:34;;;;;;;9.35;4.20;;;16.00;45.30;;;;;;5035364;28;20405;-76
2021/04/30 07:45:00;;;;;;;10.98;6.97;;;16.00;45.30;;;;;;5052136;28;20068;-74
2021/04/30 07:47:26;;;;;;;14.13;8.82;;;16.00;45.30;;;;;;5051815;28;20072;-73
2021/04/30 07:49:52;;;;;;;10.90;7.47;;;16.00;45.30;;;;;;5052345;28;20033;-73
2021/04/30 07:52:18;;;;;;;12.73;6.63;;;16.10;45.50;;;;;;5051988;28;20048;-73
2021/04/30 07:54:44;;;;;;;10.10;5.47;;;16.10;45.40;;;;;;5050543;28;20064;-77
2021/04/30 07:57:11;;;;;;;12.15;4.75;;;16.20;45.30;;;;;;5053137;28;20115;-79
2021/04/30 07:59:37;;;;;;;13.10;4.63;;;16.20;45.30;;;;;;5052046;28;20119;-82
2021/04/30 08:02:04;;;;;;;13.63;4.40;;;16.20;45.30;;;;;;5051412;28;20071;-77
2021/04/30 08:04:30;;;;;;;7.00;4.30;;;16.30;45.20;;;;;;5050121;28;20032;-76
2021/04/30 08:06:56;;;;;;;9.43;4.20;;;16.30;45.10;;;;;;5049999;28;20029;-74
2021/04/30 08:09:22;;;;;;;8.00;4.38;;;16.30;45.00;;;;;;5051053;28;20047;-77
2021/04/30 08:11:48;;;;;;;7.40;4.00;;;16.40;45.10;;;;;;5051907;28;20515;-79
2021/04/30 08:14:15;;;;;;;7.70;3.90;;;16.40;45.00;;;;;;5050500;28;20119;-74
2021/04/30 08:16:41;;;;;;;8.48;4.45;;;16.40;45.00;;;;;;5050773;28;20049;-73
2021/04/30 08:19:07;;;;;;;8.48;3.97;;;16.50;45.10;;;;;;5051673;28;20040;-75
2021/04/30 08:21:35;;;;;;;9.23;3.80;;;16.50;45.20;;;;;;5053007;28;20113;-83
2021/04/30 08:24:01;;;;;;;8.63;3.72;;;16.30;45.90;;;;;;5050397;28;20059;-79
2021/04/30 08:26:27;;;;;;;9.25;4.00;;;16.40;45.50;;;;;;5050217;28;20512;-86
2021/04/30 08:28:54;;;;;;;6.85;3.80;;;16.30;45.70;;;;;;5051043;28;20040;-80
2021/04/30 08:31:23;;;;;;;8.73;3.20;;;16.30;45.70;;;;;;5049639;28;20036;-74
2021/04/30 08:33:52;;;;;;;7.03;3.40;;;16.30;45.70;;;;;;5032647;28;20036;-76
2021/04/30 08:36:18;;;;;;;6.57;3.40;;;16.20;46.10;;;;;;5051382;28;20025;-77
2021/04/30 08:38:44;;;;;;;5.57;3.10;;;16.10;46.90;;;;;;5052059;28;20116;-84
2021/04/30 08:41:10;;;;;;;5.80;3.25;;;16.00;47.50;;;;;;5049716;28;20041;-79
2021/04/30 08:43:37;;;;;;;4.85;3.03;;;15.90;48.50;;;;;;5051099;28;20970;-81
2021/04/30 08:46:06;;;;;;;4.57;3.10;;;16.00;48.60;;;;;;5051468;28;20037;-80
2021/04/30 08:48:33;;;;;;;5.63;3.28;;;15.90;48.70;;;;;;5051796;28;20132;-78
2021/04/30 08:51:00;;;;;;;7.75;3.33;;;15.90;48.90;;;;;;5051437;28;20079;-84
2021/04/30 08:53:27;;;;;;;5.75;3.70;;;15.90;49.10;;;;;;5051190;28;20477;-76
2021/04/30 08:55:54;;;;;;;6.80;4.20;;;15.80;49.70;;;;;;5050343;28;20041;-75
2021/04/30 08:58:26;;;;;;;3.63;3.33;;;15.80;50.20;;;;;;5049721;28;20041;-80
2021/04/30 09:00:56;;;;;;;3.55;3.25;;;15.70;50.50;;;;;;5051392;28;20033;-78
2021/04/30 09:03:23;;;;;;;4.80;3.75;;;15.70;51.50;;;;;;5050640;28;20083;-81
2021/04/30 09:05:54;;;;;;;6.13;3.63;;;15.60;51.80;;;;;;5049598;28;20033;-83
2021/04/30 09:08:21;;;;;;;4.03;3.53;;;15.60;52.30;;;;;;5051101;28;20040;-80
2021/04/30 09:10:50;;;;;;;3.95;3.53;;;15.50;52.60;;;;;;5032524;28;20037;-80
2021/04/30 09:13:18;;;;;;;4.07;3.60;;;15.40;53.30;;;;;;5051227;28;20136;-83
2021/04/30 09:15:46;;;;;;;6.18;3.88;;;15.40;53.50;;;;;;5052364;28;20057;-75
2021/04/30 09:18:26;;;;;;;4.43;3.45;;;15.40;53.90;;;;;;5051310;28;20440;-81
2021/04/30 09:20:53;;;;;;;4.88;3.60;;;15.40;54.70;;;;;;5050736;28;20040;-77
2021/04/30 09:23:39;;;;;;;6.22;4.32;;;15.40;55.00;;;;;;5050270;28;20397;-76
2021/04/30 09:26:25;;;;;;;5.97;4.00;;;15.30;55.40;;;;;;5050533;28;20524;-72
2021/04/30 09:29:09;;;;;;;8.95;4.75;;;15.30;55.60;;;;;;5049116;28;20045;-72
2021/04/30 09:31:45;;;;;;;6.82;4.65;;;15.20;56.10;;;;;;5050225;28;20085;-72
2021/04/30 09:34:18;;;;;;;9.07;5.07;;;15.20;56.80;;;;;;5050628;28;20412;-71
2021/04/30 09:36:54;;;;;;;7.68;4.72;;;15.10;57.20;;;;;;5048992;28;20033;-73
2021/04/30 09:39:20;;;;;;;10.20;5.75;;;15.10;57.70;;;;;;5048764;28;20033;-74
2021/04/30 09:42:11;;;;;;;11.88;6.07;;;15.00;57.70;;;;;;5048853;28;20032;-75
2021/04/30 09:44:40;;;;;;;9.63;5.93;;;15.00;58.20;;;;;;5050374;28;20037;-71
2021/04/30 09:47:17;;;;;;;8.18;6.22;;;15.00;58.10;;;;;;5050585;28;20121;-72
2021/04/30 09:49:44;;;;;;;7.82;7.03;;;15.00;58.90;;;;;;5052492;28;20033;-71
2021/04/30 09:52:12;;;;;;;8.50;6.65;;;15.00;58.90;;;;;;5053908;28;20033;-70
2021/04/30 09:54:38;;;;;;;8.35;6.55;;;15.00;59.80;;;;;;5053245;28;20037;-73
2021/04/30 09:57:07;;;;;;;7.18;6.07;;;15.00;59.70;;;;;;5036396;28;20397;-78
2021/04/30 09:59:35;;;;;;;9.77;6.57;;;15.00;59.40;;;;;;5054018;28;20057;-72
2021/04/30 10:02:05;;;;;;;12.15;7.03;;;14.90;59.50;;;;;;5035491;28;20036;-74
2021/04/30 10:04:34;;;;;;;8.38;6.47;;;14.90;59.30;;;;;;5053703;28;20393;-76
2021/04/30 10:07:01;;;;;;;9.48;7.13;;;14.90;59.20;;;;;;5052093;28;20116;-73
2021/04/30 10:09:29;;;;;;;10.77;7.30;;;15.00;59.10;;;;;;5053297;28;20037;-73
2021/04/30 10:11:55;;;;;;;12.70;7.05;;;14.90;59.20;;;;;;5053198;28;20048;-75
2021/04/30 10:14:23;;;;;;;8.82;6.45;;;14.90;59.20;;;;;;5035170;28;20041;-74
2021/04/30 10:16:54;;;;;;;10.10;6.43;;;14.90;59.00;;;;;;5051584;28;20139;-72
2021/04/30 10:19:22;;;;;;;9.00;5.78;;;14.90;58.90;;;;;;5051852;28;20123;-77
2021/04/30 10:21:50;;;;;;;8.27;6.10;;;14.90;59.00;;;;;;5052706;28;20033;-77
2021/04/30 10:24:18;;;;;;;7.25;5.68;;;14.90;59.10;;;;;;5051540;28;20047;-74
2021/04/30 10:26:45;;;;;;;8.40;6.25;;;14.90;59.10;;;;;;5034066;28;20083;-76
2021/04/30 10:29:16;;;;;;;7.78;5.95;;;14.90;59.10;;;;;;5050683;28;20120;-77
2021/04/30 10:31:44;;;;;;;8.50;6.07;;;15.00;59.00;;;;;;5035350;28;20043;-74
2021/04/30 10:34:20;;;;;;;6.70;5.80;;;14.90;59.20;;;;;;5052975;28;20040;-73
2021/04/30 10:36:56;;;;;;;7.65;6.10;;;14.90;59.00;;;;;;5052950;28;20513;-71
2021/04/30 10:39:32;;;;;;;7.72;6.32;;;15.00;59.10;;;;;;5051309;28;20090;-76
2021/04/30 10:41:58;;;;;;;;;;;14.90;58.80;;;;;;5051844;28;20037;-74
2021/04/30 10:44:29;;;;;;;;;;;15.00;59.00;;;;;;5051842;28;19913;-73
2021/04/30 10:47:14;;;;;;;8.18;5.53;;;15.00;58.90;;;;;;5052932;28;19958;-80
2021/04/30 10:49:40;;;;;;;7.88;6.35;;;15.00;59.00;;;;;;5053339;28;20057;-75
2021/04/30 10:52:08;;;;;;;8.20;6.25;;;15.00;58.80;;;;;;5053782;28;20049;-74
2021/04/30 10:54:38;;;;;;;8.75;6.43;;;15.00;59.00;;;;;;5036380;28;20459;-74
2021/04/30 10:57:23;;;;;;;10.43;6.13;;;15.00;59.10;;;;;;5054033;28;20110;-76
2021/04/30 10:59:51;;;;;;;11.32;6.93;;;15.10;59.30;;;;;;5052482;28;20047;-72
2021/04/30 11:02:44;;;;;;;8.77;6.72;;;15.10;59.20;;;;;;5051999;28;20127;-73
2021/04/30 11:05:21;;;;;;;7.97;5.95;;;15.10;59.00;;;;;;5052520;28;20070;-76
2021/04/30 11:07:54;;;;;;;9.23;6.07;;;15.10;59.10;;;;;;5034253;28;20067;-71
2021/04/30 11:10:23;;;;;;;7.25;6.28;;;15.10;58.90;;;;;;5052426;28;20404;-77
2021/04/30 11:13:20;;;;;;;8.20;6.25;;;15.10;59.00;;;;;;5053490;28;20045;-72
2021/04/30 11:15:46;;;;;;;7.10;6.25;;;15.20;58.90;;;;;;5031069;28;20045;-71
2021/04/30 11:18:20;;;;;;;7.80;6.40;;;15.20;58.80;;;;;;5053530;28;20045;-71
2021/04/30 11:21:09;;;;;;;8.10;6.03;;;15.20;58.80;;;;;;5052487;28;20689;-71
2021/04/30 11:23:54;;;;;;;8.23;6.30;;;15.20;58.80;;;;;;5052743;28;20041;-69
2021/04/30 11:26:30;;;;;;;11.35;6.90;;;15.20;58.80;;;;;;5035662;28;20040;-69
2021/04/30 11:28:58;;;;;;;8.68;6.50;;;15.20;58.80;;;;;;5035485;28;20052;-70
2021/04/30 11:31:32;;;;;;;8.32;6.45;;;15.20;58.90;;;;;;5051859;28;20035;-69
2021/04/30 11:34:12;;;;;;;8.15;6.75;;;15.20;59.10;;;;;;5051889;28;20041;-70
2021/04/30 11:36:40;;;;;;;7.95;6.10;;;15.20;59.30;;;;;;5051896;28;20049;-70
2021/04/30 11:39:17;;;;;;;10.05;6.85;;;15.20;59.30;;;;;;5051837;28;20040;-70
2021/04/30 11:41:44;;;;;;;9.32;7.05;;;15.30;59.60;;;;;;5051519;28;20031;-72
2021/04/30 11:44:11;;;;;;;14.50;7.28;;;15.30;59.40;;;;;;5052840;28;20029;-69
2021/04/30 11:46:40;;;;;;;9.32;6.75;;;15.30;59.40;;;;;;5051915;28;20098;-72
2021/04/30 11:49:06;;;;;;;9.98;7.30;;;15.30;59.40;;;;;;5035279;28;20029;-72
2021/04/30 11:51:43;;;;;;;10.85;7.30;;;15.30;59.30;;;;;;5034800;28;20489;-70
2021/04/30 11:54:09;;;;;;;11.05;8.00;;;15.30;59.20;;;;;;5052646;28;20123;-70
2021/04/30 11:56:36;;;;;;;12.00;7.43;;;15.40;59.50;;;;;;5053476;28;20132;-73
2021/04/30 11:59:03;;;;;;;9.63;6.38;;;15.40;59.50;;;;;;5051694;28;20135;-73
2021/04/30 12:01:30;;;;;;;10.05;7.20;;;15.40;59.20;;;;;;5051419;28;20061;-75
2021/04/30 12:03:56;;;;;;;10.43;7.47;;;15.50;59.10;;;;;;5051473;28;20044;-72
2021/04/30 12:06:23;;;;;;;9.20;7.32;;;15.50;58.90;;;;;;5052738;28;20037;-74
2021/04/30 12:08:51;;;;;;;10.48;6.45;;;15.50;58.90;;;;;;5052723;28;20041;-73
2021/04/30 12:11:35;;;;;;;8.35;6.57;;;15.50;58.70;;;;;;5050938;28;20524;-75
2021/04/30 12:14:06;;;;;;;8.25;6.78;;;15.60;58.80;;;;;;5050999;28;20079;-79
2021/04/30 12:16:32;;;;;;;9.38;7.03;;;15.60;58.90;;;;;;5050869;28;20057;-77
2021/04/30 12:18:59;;;;;;;8.50;6.60;;;15.60;59.00;;;;;;5052407;28;20032;-76
2021/04/30 12:21:26;;;;;;;9.55;6.82;;;15.60;59.20;;;;;;5052595;28;20082;-75
2021/04/30 12:23:52;;;;;;;8.68;6.43;;;15.60;59.10;;;;;;5052700;28;20037;-71
2021/04/30 12:26:30;;;;;;;11.75;6.10;;;15.70;59.00;;;;;;5052522;28;20123;-71
2021/04/30 12:28:57;;;;;;;9.43;6.82;;;15.70;58.90;;;;;;5052753;28;20443;-71
2021/04/30 12:31:25;;;;;;;8.82;6.50;;;15.80;58.80;;;;;;5051079;28;20063;-71
2021/04/30 12:33:52;;;;;;;8.70;6.63;;;15.80;58.70;;;;;;5051053;28;20040;-71
2021/04/30 12:36:22;;;;;;;9.50;6.32;;;15.80;58.70;;;;;;5051153;28;20128;-71
2021/04/30 12:38:53;;;;;;;9.35;6.90;;;15.90;58.80;;;;;;5052000;28;20078;-74
2021/04/30 12:41:25;;;;;;;10.75;6.70;;;15.90;58.80;;;;;;5051937;28;20040;-71
2021/04/30 12:43:59;;;;;;;9.60;6.50;;;15.90;58.80;;;;;;5051757;28;20032;-71